Time;durP1;ratioP1;P1;durP2;ratioP2;P2;SDS_P1;SDS_P2;PMS_P1;PMS_P2;Temp;Humidity;BMP_temperature;BMP_pressure;BME280_temperature;BME280_humidity;BME280_pressure;Samples;Min_cycle;Max_cycle;Signal;HPM_P1;HPM_P2
2022/05/25 00:00:48;;;;;;;4.95;1.50;;;;;;;12.10;78.51;100530.38;4999656;28;20046;-82
2022/05/25 00:03:15;;;;;;;1.35;1.25;;;;;;;12.11;78.56;100533.00;4999720;28;20036;-82
2022/05/25 00:05:42;;;;;;;1.27;1.20;;;;;;;12.07;78.69;100532.19;5013370;28;20046;-84
2022/05/25 00:08:09;;;;;;;1.83;1.70;;;;;;;12.04;78.95;100532.22;5000838;28;20073;-83
2022/05/25 00:10:36;;;;;;;1.70;0.82;;;;;;;11.93;78.78;100526.25;5004790;28;20045;-84
2022/05/25 00:13:06;;;;;;;2.08;1.70;;;;;;;11.79;79.26;100529.09;5012595;28;20860;-85
2022/05/25 00:15:33;;;;;;;1.65;1.27;;;;;;;11.68;80.36;100526.66;5013673;28;20357;-83
2022/05/25 00:18:00;;;;;;;1.05;1.00;;;;;;;11.59;80.81;100530.28;5017138;28;20117;-84
2022/05/25 00:20:26;;;;;;;0.80;0.80;;;;;;;11.52;81.47;100535.63;5014092;28;20067;-83
2022/05/25 00:22:56;;;;;;;3.88;1.60;;;;;;;11.44;81.38;100533.13;4994783;28;20054;-84
2022/05/25 00:25:30;;;;;;;4.25;1.25;;;;;;;11.41;81.99;100533.19;5011942;28;20583;-83
2022/05/25 00:27:58;;;;;;;2.25;1.38;;;;;;;11.39;82.36;100540.19;5012382;28;20049;-82
2022/05/25 00:30:26;;;;;;;2.00;1.23;;;;;;;11.37;82.83;100534.13;5017676;28;20054;-85
2022/05/25 00:32:58;;;;;;;1.45;1.23;;;;;;;11.38;82.78;100535.81;4994641;28;20411;-83
2022/05/25 00:35:29;;;;;;;1.23;1.20;;;;;;;11.39;82.81;100541.06;5011689;28;20153;-84
2022/05/25 00:37:55;;;;;;;1.60;1.50;;;;;;;11.41;82.58;100548.91;4981977;28;20069;-83
2022/05/25 00:40:33;;;;;;;2.58;1.33;;;;;;;11.42;82.48;100541.00;4997477;28;20034;-83
2022/05/25 00:43:00;;;;;;;2.40;1.40;;;;;;;11.43;82.55;100541.88;4989727;28;20080;-83
2022/05/25 00:45:30;;;;;;;2.58;1.17;;;;;;;11.42;82.50;100551.50;5012585;28;20068;-84
2022/05/25 00:47:59;;;;;;;2.15;1.20;;;;;;;11.45;82.85;100550.59;4992868;28;20084;-84
2022/05/25 00:51:11;;;;;;;1.27;1.27;;;;;;;11.44;82.38;100543.59;4994818;28;20117;-82
2022/05/25 00:53:14;;;;;;;0.88;0.88;;;;;;;11.44;82.25;100550.63;4994821;28;20148;-84
2022/05/25 00:55:41;;;;;;;1.92;1.08;;;;;;;11.43;82.93;100552.34;4992982;28;20049;-81
2022/05/25 00:58:08;;;;;;;1.90;1.23;;;;;;;11.41;82.68;100544.53;4995115;28;20066;-82
2022/05/25 01:00:35;;;;;;;1.05;1.00;;;;;;;11.39;82.72;100551.56;4997058;28;20140;-83
2022/05/25 01:03:10;;;;;;;1.30;1.20;;;;;;;11.36;83.29;100555.97;4997046;28;20140;-83
2022/05/25 01:06:02;;;;;;;1.55;0.88;;;;;;;11.31;83.65;100560.41;4996958;28;20041;-83
2022/05/25 01:09:03;;;;;;;3.40;1.00;;;;;;;11.24;83.66;100557.00;4998032;28;20049;-84
2022/05/25 01:11:49;;;;;;;0.77;0.77;;;;;;;11.13;84.11;100557.13;4996491;28;20046;-85
2022/05/25 01:14:59;;;;;;;2.42;0.82;;;;;;;11.05;84.62;100561.59;4998285;28;20118;-84
2022/05/25 01:18:06;;;;;;;1.40;1.00;;;;;;;10.96;85.04;100570.44;5006370;28;20574;-82
2022/05/25 01:20:46;;;;;;;1.98;1.25;;;;;;;10.86;85.30;100572.31;4985514;28;20069;-84
2022/05/25 01:24:09;;;;;;;1.63;1.52;;;;;;;10.78;86.43;100576.78;5001709;28;20054;-83
2022/05/25 01:27:13;;;;;;;0.98;0.85;;;;;;;10.69;86.53;100577.72;4985555;28;20057;-84
2022/05/25 01:30:40;;;;;;;4.07;1.17;;;;;;;10.69;87.04;100569.88;5003890;28;20054;-83
2022/05/25 01:33:16;;;;;;;2.08;1.30;;;;;;;10.61;86.89;100578.69;4970604;28;20046;-84
2022/05/25 01:36:06;;;;;;;1.27;1.15;;;;;;;10.59;87.58;100570.84;4949701;28;20110;-84
2022/05/25 01:39:01;;;;;;;2.95;0.80;;;;;;;10.56;88.07;100583.97;5000791;28;20045;-83
2022/05/25 01:41:51;;;;;;;0.93;0.93;;;;;;;10.54;87.97;100576.13;4977681;28;20130;-83
2022/05/25 01:44:48;;;;;;;0.93;0.93;;;;;;;10.50;88.48;100576.19;5025090;28;20045;-83
2022/05/25 01:47:24;;;;;;;1.77;1.63;;;;;;;10.45;89.01;100575.34;5027272;28;20053;-84
2022/05/25 01:50:19;;;;;;;1.50;1.23;;;;;;;10.43;89.10;100581.47;4976696;28;20045;-83
2022/05/25 01:52:53;;;;;;;7.07;1.27;;;;;;;10.36;89.32;100578.91;4990377;28;20050;-84
2022/05/25 01:55:49;;;;;;;2.60;1.40;;;;;;;10.32;89.37;100575.44;4989490;28;20042;-83
2022/05/25 01:58:19;;;;;;;1.17;0.80;;;;;;;10.30;89.65;100582.44;4994115;28;20109;-83
2022/05/25 02:00:51;;;;;;;2.15;1.30;;;;;;;10.29;90.00;100575.47;5026140;28;20114;-83
2022/05/25 02:06:38;;;;;;;1.70;1.35;;;;;;;10.25;89.65;100573.75;4994150;28;20058;-84
2022/05/25 02:09:30;;;;;;;3.08;1.50;;;;;;;10.29;90.06;100585.06;5025142;28;20037;-83
2022/05/25 02:12:12;;;;;;;2.08;1.00;;;;;;;10.37;89.43;100583.28;5008918;28;20053;-84
2022/05/25 02:14:49;;;;;;;1.52;1.42;;;;;;;10.40;88.48;100578.91;5007428;28;20058;-84
2022/05/25 02:17:34;;;;;;;1.88;1.60;;;;;;;10.37;89.04;100586.75;4992190;28;20060;-84
2022/05/25 02:20:51;;;;;;;1.30;1.20;;;;;;;10.34;89.03;100580.63;5009349;28;20069;-83
2022/05/25 02:23:49;;;;;;;2.78;1.40;;;;;;;10.30;88.93;100584.16;5007097;28;20440;-84
2022/05/25 02:26:23;;;;;;;2.97;1.40;;;;;;;10.30;89.78;100581.56;4975132;28;20336;-83
2022/05/25 02:29:07;;;;;;;;;;;;;;;10.30;89.86;100585.06;4996984;28;20049;-84
2022/05/25 02:31:44;;;;;;;2.40;1.83;;;;;;;10.34;89.60;100580.63;4997895;28;19925;-83
2022/05/25 02:34:16;;;;;;;0.90;0.90;;;;;;;10.36;89.34;100578.91;5012342;28;20081;-82
2022/05/25 02:36:45;;;;;;;2.03;1.73;;;;;;;10.36;89.87;100589.38;4983129;28;20136;-83
2022/05/25 02:39:13;;;;;;;1.55;1.45;;;;;;;10.37;89.99;100584.13;4997717;28;20367;-83
2022/05/25 02:41:54;;;;;;;2.90;1.30;;;;;;;10.39;89.86;100594.56;5013673;28;20075;-85
2022/05/25 02:44:22;;;;;;;3.38;1.90;;;;;;;10.34;89.48;100598.94;5014100;28;20416;-83
2022/05/25 02:46:49;;;;;;;1.90;1.77;;;;;;;10.29;89.92;100599.00;5001054;28;20042;-84
2022/05/25 02:49:17;;;;;;;2.10;2.00;;;;;;;10.23;90.57;100602.56;4996127;28;20049;-83
2022/05/25 02:51:45;;;;;;;1.77;1.67;;;;;;;10.17;90.98;100607.84;5014415;28;20049;-84
2022/05/25 02:54:12;;;;;;;2.03;1.85;;;;;;;10.14;91.39;100615.69;5013037;28;20088;-84
2022/05/25 02:56:39;;;;;;;3.17;2.10;;;;;;;10.12;91.45;100608.72;5013199;28;20117;-85
2022/05/25 02:59:06;;;;;;;5.13;2.22;;;;;;;10.11;91.83;100610.50;4996467;28;20048;-84
2022/05/25 03:01:39;;;;;;;3.20;2.60;;;;;;;10.09;92.23;100617.50;5013273;28;20054;-84
2022/05/25 03:04:06;;;;;;;3.38;2.33;;;;;;;10.07;92.38;100620.09;5012764;28;20065;-83
2022/05/25 03:06:35;;;;;;;5.50;2.63;;;;;;;10.05;92.98;100619.25;5010344;28;20046;-84
2022/05/25 03:09:03;;;;;;;4.75;2.88;;;;;;;10.05;92.97;100626.22;4986633;28;20502;-84
2022/05/25 03:11:32;;;;;;;3.03;2.72;;;;;;;10.03;93.19;100633.22;4993403;28;20161;-84
2022/05/25 03:14:02;;;;;;;3.30;3.00;;;;;;;10.01;92.91;100635.84;4995583;28;20069;-84
2022/05/25 03:16:30;;;;;;;5.50;3.47;;;;;;;10.01;93.64;100640.19;4993779;28;20077;-84
2022/05/25 03:18:58;;;;;;;3.35;3.05;;;;;;;10.01;93.85;100648.94;4997867;28;20058;-82
2022/05/25 03:21:25;;;;;;;2.70;2.50;;;;;;;9.98;93.42;100642.84;5002092;28;20319;-83
2022/05/25 03:23:52;;;;;;;3.08;2.85;;;;;;;9.94;93.51;100640.25;4996652;28;20046;-83
2022/05/25 03:26:19;;;;;;;5.00;4.20;;;;;;;9.89;94.17;100644.63;5028092;28;20056;-84
2022/05/25 03:28:50;;;;;;;3.63;3.28;;;;;;;9.85;94.68;100650.75;5017698;28;20145;-84
2022/05/25 03:31:20;;;;;;;5.72;3.65;;;;;;;9.87;94.46;100645.53;5003946;28;20054;-84
2022/05/25 03:33:48;;;;;;;4.22;3.70;;;;;;;9.87;94.75;100653.38;4987676;28;20041;-85
2022/05/25 03:36:15;;;;;;;5.05;3.67;;;;;;;9.86;94.82;100651.66;4975398;28;20318;-84
2022/05/25 03:38:42;;;;;;;4.13;3.38;;;;;;;9.89;94.63;100657.69;4996120;28;20084;-82
2022/05/25 03:41:09;;;;;;;3.55;3.25;;;;;;;9.94;94.70;100657.69;4999564;28;20474;-83
2022/05/25 03:43:46;;;;;;;7.53;3.95;;;;;;;10.02;94.76;100658.50;4997246;28;20404;-85
2022/05/25 03:46:13;;;;;;;11.18;4.65;;;;;;;10.06;94.20;100664.56;4993586;28;20054;-85
2022/05/25 03:48:40;;;;;;;5.22;4.15;;;;;;;10.08;93.90;100665.44;4985200;28;20128;-82
2022/05/25 03:51:07;;;;;;;5.88;4.40;;;;;;;10.12;93.90;100671.50;4982458;28;20050;-83
2022/05/25 03:53:35;;;;;;;6.60;4.70;;;;;;;10.14;93.89;100672.38;4984841;28;20538;-84
2022/05/25 03:56:05;;;;;;;5.72;4.00;;;;;;;10.18;93.36;100667.13;4995363;28;20050;-85
2022/05/25 03:58:32;;;;;;;9.88;5.25;;;;;;;10.22;93.63;100668.84;4985436;28;20129;-84
2022/05/25 04:00:59;;;;;;;4.93;4.32;;;;;;;10.23;93.21;100669.69;4984309;28;20046;-84
2022/05/25 04:03:29;;;;;;;7.72;5.43;;;;;;;10.26;93.34;100675.78;4983138;28;20050;-84
2022/05/25 04:05:58;;;;;;;8.27;4.75;;;;;;;10.27;93.30;100663.56;4998674;28;20038;-84
2022/05/25 04:08:28;;;;;;;8.40;4.78;;;;;;;10.29;93.42;100672.28;5002397;28;20510;-84
2022/05/25 04:10:58;;;;;;;6.80;5.00;;;;;;;10.35;93.20;100666.09;4985979;28;20050;-84
2022/05/25 04:13:25;;;;;;;4.65;4.25;;;;;;;10.39;92.93;100670.47;4986119;28;20072;-84
2022/05/25 04:15:52;;;;;;;7.65;4.05;;;;;;;10.41;92.25;100666.97;4990213;28;20161;-84
2022/05/25 04:18:21;;;;;;;8.05;5.22;;;;;;;10.47;92.47;100670.41;4974898;28;20209;-85
2022/05/25 04:20:48;;;;;;;4.85;4.40;;;;;;;10.49;92.04;100666.91;4983009;28;20042;-85
2022/05/25 04:23:15;;;;;;;5.70;5.10;;;;;;;10.55;91.83;100663.38;4991539;28;20077;-82
2022/05/25 04:25:42;;;;;;;4.97;4.47;;;;;;;10.59;91.78;100670.31;4959882;28;20069;-85
2022/05/25 04:28:10;;;;;;;7.22;4.75;;;;;;;10.64;91.42;100671.16;4977053;28;20081;-85
2022/05/25 04:30:37;;;;;;;5.60;5.00;;;;;;;10.71;91.10;100677.19;4994001;28;20046;-83
2022/05/25 04:33:05;;;;;;;7.90;3.90;;;;;;;10.76;90.59;100673.63;5008259;28;20145;-84
2022/05/25 04:35:31;;;;;;;7.15;4.70;;;;;;;10.82;90.36;100669.22;4975805;28;20270;-84
2022/05/25 04:37:58;;;;;;;7.53;4.57;;;;;;;10.87;89.75;100673.56;4980308;28;20046;-84
2022/05/25 04:40:40;;;;;;;5.30;4.63;;;;;;;10.96;89.63;100669.09;4995889;28;20527;-86
2022/05/25 04:43:20;;;;;;;6.22;4.75;;;;;;;11.00;88.79;100671.69;4994935;28;20050;-82
2022/05/25 04:45:51;;;;;;;7.18;4.93;;;;;;;11.07;88.89;100675.09;5014649;28;20129;-84
2022/05/25 04:48:21;;;;;;;8.13;5.07;;;;;;;11.11;88.30;100674.19;4996040;28;20049;-84
2022/05/25 04:50:48;;;;;;;7.60;5.32;;;;;;;11.15;88.30;100683.75;4995687;28;20484;-83
2022/05/25 04:53:19;;;;;;;7.28;5.85;;;;;;;11.17;88.24;100686.34;4999017;28;20046;-84
2022/05/25 04:58:48;;;;;;;5.97;4.57;;;;;;;11.22;88.08;100671.44;4999834;28;20133;-84
2022/05/25 05:01:19;;;;;;;11.10;5.07;;;;;;;11.25;87.78;100682.75;4983807;28;20050;-83
2022/05/25 05:03:47;;;;;;;8.48;5.22;;;;;;;11.33;87.16;100680.03;4991585;28;20129;-84
2022/05/25 05:06:18;;;;;;;8.32;5.47;;;;;;;11.35;87.30;100683.50;4995868;28;20073;-84
2022/05/25 05:08:45;;;;;;;7.15;4.70;;;;;;;11.38;87.23;100691.34;4996857;28;20053;-84
2022/05/25 05:11:18;;;;;;;6.53;5.25;;;;;;;11.40;87.26;100679.06;4992388;28;20134;-85
2022/05/25 05:13:45;;;;;;;5.40;4.90;;;;;;;11.47;87.28;100692.13;5010683;28;20050;-86
2022/05/25 05:16:17;;;;;;;9.35;5.43;;;;;;;11.53;87.31;100692.03;4982813;28;20078;-85
2022/05/25 05:18:45;;;;;;;6.85;5.38;;;;;;;11.58;86.34;100696.34;4991004;28;20148;-84
2022/05/25 05:21:16;;;;;;;7.55;5.70;;;;;;;11.62;86.44;100688.44;5011912;28;20068;-83
2022/05/25 05:23:50;;;;;;;7.43;6.03;;;;;;;11.65;86.28;100693.66;4974406;28;20050;-85
2022/05/25 05:26:19;;;;;;;6.72;6.03;;;;;;;11.69;86.09;100690.09;4970155;28;20046;-83
2022/05/25 05:28:49;;;;;;;7.10;6.22;;;;;;;11.73;85.87;100697.91;4984963;28;20045;-84
2022/05/25 05:31:17;;;;;;;10.02;7.32;;;;;;;11.80;85.22;100695.19;4996895;28;20056;-85
2022/05/25 05:33:44;;;;;;;7.57;6.78;;;;;;;11.83;84.83;100700.41;5006954;28;20038;-84
2022/05/25 05:36:25;;;;;;;8.35;6.60;;;;;;;11.83;85.23;100701.25;4966376;28;20078;-81
2022/05/25 05:39:08;;;;;;;8.68;6.55;;;;;;;11.87;85.08;100707.34;4982579;28;20054;-84
2022/05/25 05:44:40;;;;;;;9.32;6.40;;;;;;;11.96;84.67;100709.88;4975693;28;20074;-83
2022/05/25 05:47:18;;;;;;;9.02;7.25;;;;;;;12.01;84.25;100721.16;4992487;28;20046;-84
2022/05/25 05:49:45;;;;;;;6.95;5.97;;;;;;;12.07;84.39;100714.97;5008651;28;20104;-83
2022/05/25 05:52:13;;;;;;;7.15;5.97;;;;;;;12.08;84.65;100716.69;5001848;28;20030;-85
2022/05/25 05:54:40;;;;;;;10.10;6.68;;;;;;;12.14;84.03;100716.63;5000116;28;20109;-86
2022/05/25 05:57:08;;;;;;;9.52;6.97;;;;;;;12.26;83.28;100714.72;5010172;28;20047;-84
2022/05/25 05:59:35;;;;;;;9.68;6.65;;;;;;;12.26;83.09;100717.34;4984015;28;20074;-84
2022/05/25 06:02:02;;;;;;;8.48;7.55;;;;;;;12.30;82.70;100719.03;4977793;28;20445;-85
2022/05/25 06:04:29;;;;;;;8.60;7.20;;;;;;;12.36;82.60;100721.56;4976809;28;20133;-86
2022/05/25 06:06:55;;;;;;;8.63;6.80;;;;;;;12.40;82.18;100718.00;4978909;28;20050;-86
2022/05/25 06:09:22;;;;;;;10.65;7.88;;;;;;;12.41;82.33;100723.22;4980433;28;20047;-85
2022/05/25 06:11:50;;;;;;;9.40;7.75;;;;;;;12.49;81.50;100730.97;4989986;28;20046;-85
2022/05/25 06:14:16;;;;;;;9.20;7.85;;;;;;;12.48;81.97;100733.63;4996655;28;20047;-86
2022/05/25 06:19:33;;;;;;;10.48;7.43;;;;;;;12.59;80.92;100726.44;5010177;28;20045;-83
2022/05/25 06:22:14;;;;;;;11.27;6.60;;;;;;;12.67;80.77;100736.81;4980956;28;20074;-84
2022/05/25 06:24:51;;;;;;;8.70;7.70;;;;;;;12.73;80.82;100739.34;4976478;28;20284;-85
2022/05/25 06:27:20;;;;;;;15.10;7.55;;;;;;;12.81;80.25;100731.34;5014331;28;20054;-85
2022/05/25 06:29:49;;;;;;;8.50;7.05;;;;;;;12.96;79.29;100730.19;4983315;28;20116;-85
2022/05/25 06:32:23;;;;;;;9.05;7.15;;;;;;;12.98;78.72;100736.31;4977858;28;20045;-85
2022/05/25 06:34:50;;;;;;;10.02;7.97;;;;;;;12.99;79.09;100745.91;4995587;28;20046;-86
2022/05/25 06:37:22;;;;;;;11.50;7.30;;;;;;;13.07;79.03;100738.75;4996086;28;20115;-85
2022/05/25 06:39:50;;;;;;;9.25;6.85;;;;;;;13.08;79.02;100738.72;4979092;28;20046;-85
2022/05/25 06:42:17;;;;;;;7.40;6.65;;;;;;;13.12;78.88;100734.28;5012721;28;20227;-83
2022/05/25 06:44:44;;;;;;;8.48;6.55;;;;;;;13.22;77.91;100740.25;4985412;28;20033;-85
2022/05/25 06:47:17;;;;;;;8.18;6.25;;;;;;;13.40;77.15;100745.19;4977822;28;20086;-83
2022/05/25 06:49:44;;;;;;;10.00;6.57;;;;;;;13.66;76.73;100749.09;5008508;28;20439;-85
2022/05/25 06:52:13;;;;;;;9.88;6.18;;;;;;;13.95;74.31;100738.81;4999779;28;20062;-84
2022/05/25 06:54:42;;;;;;;9.05;7.32;;;;;;;14.03;74.13;100739.53;4995660;28;20088;-83
2022/05/25 06:57:13;;;;;;;6.85;6.10;;;;;;;14.17;73.18;100753.25;4999629;28;20097;-86
2022/05/25 06:59:41;;;;;;;6.63;4.95;;;;;;;14.33;72.86;100745.03;4997310;28;20046;-83
2022/05/25 07:02:14;;;;;;;5.00;4.50;;;;;;;14.44;71.71;100763.19;5018548;28;20100;-85
2022/05/25 07:04:51;;;;;;;5.05;4.65;;;;;;;14.50;71.15;100755.16;5001409;28;20057;-86
2022/05/25 07:07:19;;;;;;;4.68;4.28;;;;;;;14.59;69.35;100761.97;4978756;28;20054;-84
2022/05/25 07:12:59;;;;;;;3.63;3.15;;;;;;;14.55;67.57;100756.78;4998913;28;20050;-85
2022/05/25 07:15:39;;;;;;;4.28;3.40;;;;;;;14.33;67.88;100768.72;5007080;28;20034;-86
2022/05/25 07:18:36;;;;;;;4.88;3.42;;;;;;;14.25;68.77;100768.00;4985635;28;20042;-85
2022/05/25 07:21:13;;;;;;;5.47;3.45;;;;;;;14.54;67.98;100767.34;4974169;28;20057;-85
2022/05/25 07:23:43;;;;;;;4.40;3.75;;;;;;;15.19;64.14;100774.53;4998658;28;20038;-85
2022/05/25 07:26:14;;;;;;;5.20;3.20;;;;;;;15.76;63.28;100773.91;4999631;28;20046;-85
2022/05/25 07:28:42;;;;;;;3.55;2.65;;;;;;;16.28;58.78;100756.56;4986173;28;20051;-85
2022/05/25 07:31:22;;;;;;;2.35;2.13;;;;;;;16.46;58.37;100768.28;4984890;28;20106;-86
2022/05/25 07:34:05;;;;;;;4.22;2.00;;;;;;;16.84;56.99;100770.59;4987124;28;20555;-84
2022/05/25 07:36:35;;;;;;;4.22;2.10;;;;;;;17.18;54.82;100774.78;5015205;28;20042;-84
2022/05/25 07:39:11;;;;;;;5.15;1.73;;;;;;;17.47;53.79;100775.53;4991277;28;20047;-85
2022/05/25 07:41:45;;;;;;;3.92;2.08;;;;;;;17.82;51.96;100778.69;4999619;28;20118;-84
2022/05/25 07:44:23;;;;;;;7.43;1.90;;;;;;;18.09;52.06;100778.59;5000440;28;20496;-84
2022/05/25 07:46:53;;;;;;;3.47;1.88;;;;;;;17.85;51.75;100782.09;4985019;28;20058;-85
2022/05/25 07:49:23;;;;;;;1.70;1.55;;;;;;;17.88;52.17;100786.41;5019262;28;20050;-86
2022/05/25 07:51:55;;;;;;;4.05;2.08;;;;;;;17.96;50.81;100787.00;4980552;28;20696;-85
2022/05/25 07:55:19;;;;;;;2.80;1.73;;;;;;;18.26;50.16;100786.75;5002055;28;20043;-86
2022/05/25 07:57:50;;;;;;;1.85;1.40;;;;;;;18.50;49.65;100784.09;4970196;28;20115;-86
2022/05/25 08:00:25;;;;;;;2.35;1.30;;;;;;;18.71;48.75;100779.69;4964530;28;20043;-85
2022/05/25 08:05:47;;;;;;;5.25;1.58;;;;;;;19.38;46.26;100787.56;5002192;28;20116;-85
2022/05/25 08:08:20;;;;;;;1.15;1.13;;;;;;;19.87;45.09;100781.84;5000656;28;20042;-83
2022/05/25 08:11:03;;;;;;;4.45;1.30;;;;;;;20.24;44.10;100781.00;5024291;28;20078;-85
2022/05/25 08:13:39;;;;;;;2.33;0.80;;;;;;;20.51;43.90;100780.63;5004661;28;20058;-84
2022/05/25 08:16:06;;;;;;;1.20;1.20;;;;;;;20.70;43.61;100775.28;5003899;28;20054;-85
2022/05/25 08:18:39;;;;;;;1.70;1.60;;;;;;;21.42;42.89;100773.41;5007712;28;20046;-85
2022/05/25 08:21:07;;;;;;;1.15;1.15;;;;;;;21.56;41.19;100772.72;5013774;28;20057;-83
2022/05/25 08:23:34;;;;;;;1.70;1.60;;;;;;;21.32;40.27;100769.50;4996847;28;20038;-84
2022/05/25 08:26:07;;;;;;;0.80;0.80;;;;;;;21.06;40.35;100763.72;5015430;28;20057;-84
2022/05/25 08:28:34;;;;;;;;;;;;;;;20.99;39.85;100757.88;5015407;28;20077;-84
2022/05/25 08:31:11;;;;;;;0.98;0.95;;;;;;;21.00;40.78;100782.66;5015105;28;19949;-85
2022/05/25 08:33:37;;;;;;;3.03;1.00;;;;;;;21.46;39.58;100779.44;5009920;28;20073;-84
2022/05/25 08:36:05;;;;;;;1.17;0.93;;;;;;;21.83;39.27;100772.16;4995858;28;20057;-85
2022/05/25 08:38:32;;;;;;;0.70;0.70;;;;;;;22.25;38.91;100773.44;4995746;28;20069;-86
2022/05/25 08:41:00;;;;;;;0.77;0.77;;;;;;;22.50;37.47;100766.72;5010984;28;20042;-86
2022/05/25 08:43:46;;;;;;;1.67;0.60;;;;;;;22.83;37.26;100770.19;4972275;28;20073;-86
2022/05/25 08:46:22;;;;;;;2.78;0.95;;;;;;;23.71;35.22;100770.28;4997563;28;20150;-84
2022/05/25 08:48:54;;;;;;;0.68;0.50;;;;;;;23.92;34.47;100760.94;4997278;28;20033;-86
2022/05/25 08:51:27;;;;;;;1.30;0.77;;;;;;;24.02;34.19;100766.53;4997054;28;20117;-86
2022/05/25 08:53:57;;;;;;;1.23;0.75;;;;;;;24.03;34.63;100762.94;5016637;28;20144;-86
2022/05/25 08:56:49;;;;;;;2.92;0.88;;;;;;;24.08;34.54;100766.16;4995623;28;20066;-84
2022/05/25 08:59:29;;;;;;;2.30;1.30;;;;;;;23.38;35.90;100768.75;5002239;28;20046;-86
2022/05/25 09:02:40;;;;;;;3.53;1.08;;;;;;;22.28;36.86;100775.03;5016559;28;20161;-84
2022/05/25 09:05:50;;;;;;;3.88;0.57;;;;;;;21.13;38.67;100772.25;4999266;28;20074;-85
2022/05/25 09:08:43;;;;;;;0.75;0.75;;;;;;;19.93;41.08;100771.84;4998260;28;20081;-87
2022/05/25 09:11:45;;;;;;;1.35;0.75;;;;;;;20.36;40.96;100762.75;4981135;28;20050;-85
2022/05/25 09:14:37;;;;;;;1.75;1.00;;;;;;;20.56;40.84;100767.09;5013365;28;20153;-85
2022/05/25 09:17:18;;;;;;;1.45;1.00;;;;;;;20.10;41.76;100780.78;4981744;28;20068;-84
2022/05/25 09:19:52;;;;;;;0.80;0.80;;;;;;;19.17;43.54;100783.09;4983033;28;20351;-83
2022/05/25 09:22:25;;;;;;;1.23;1.10;;;;;;;18.78;44.21;100796.22;4996377;28;20053;-85
2022/05/25 09:25:07;;;;;;;3.17;1.27;;;;;;;20.02;42.23;100785.63;4996211;28;20058;-84
2022/05/25 09:32:03;;;;;;;1.73;1.45;;;;;;;23.69;35.72;100758.81;4980335;28;20058;-85
2022/05/25 09:35:13;;;;;;;2.53;1.55;;;;;;;24.53;34.11;100746.34;4997470;28;20056;-84
2022/05/25 09:38:01;;;;;;;2.53;1.67;;;;;;;24.66;34.54;100757.13;5014725;28;20050;-85
2022/05/25 09:40:43;;;;;;;1.42;1.33;;;;;;;25.09;33.68;100764.94;4980143;28;20074;-84
2022/05/25 09:43:21;;;;;;;1.13;1.13;;;;;;;24.30;34.29;100754.09;5016638;28;20071;-84
2022/05/25 09:46:05;;;;;;;1.73;1.48;;;;;;;24.47;33.70;100760.13;4998712;28;20052;-83
2022/05/25 09:48:58;;;;;;;6.53;1.50;;;;;;;23.99;34.62;100764.09;5007859;28;20089;-85
2022/05/25 09:51:44;;;;;;;2.58;1.30;;;;;;;23.35;35.32;100767.13;4999814;28;20054;-85
2022/05/25 09:54:35;;;;;;;1.25;0.98;;;;;;;22.42;36.73;100769.84;5016974;28;20047;-83
2022/05/25 09:57:29;;;;;;;1.65;1.00;;;;;;;23.62;34.91;100777.03;5018403;28;20508;-84
2022/05/25 10:00:21;;;;;;;3.17;0.90;;;;;;;25.46;32.76;100762.44;5008355;28;20054;-85
2022/05/25 10:02:59;;;;;;;2.00;1.00;;;;;;;26.15;30.43;100761.16;4995444;28;20498;-85
2022/05/25 10:08:37;;;;;;;2.05;1.00;;;;;;;25.92;29.37;100760.97;5007059;28;20046;-85
2022/05/25 10:11:33;;;;;;;1.17;1.00;;;;;;;25.63;29.84;100761.25;5020703;28;20043;-84
2022/05/25 10:14:42;;;;;;;3.08;1.20;;;;;;;25.74;29.80;100758.63;5007121;28;20466;-87
2022/05/25 10:17:53;;;;;;;4.05;1.05;;;;;;;26.85;29.32;100759.59;5013315;28;20073;-84
2022/05/25 10:21:00;;;;;;;0.95;0.90;;;;;;;28.15;26.52;100753.00;5004755;28;20049;-85
2022/05/25 10:23:35;;;;;;;0.50;0.50;;;;;;;27.81;27.12;100750.34;4987935;28;20046;-84
2022/05/25 10:26:34;;;;;;;1.42;0.88;;;;;;;26.60;28.11;100764.09;5008518;28;20078;-85
2022/05/25 10:41:40;;;;;;;0.73;0.73;;;;;;;26.73;29.37;100762.22;4993414;28;20052;-85
2022/05/25 10:47:58;;;;;;;0.57;0.57;;;;;;;28.39;24.77;100746.56;4996893;28;20105;-84
2022/05/25 10:50:59;;;;;;;1.42;0.65;;;;;;;27.96;25.82;100758.16;5012641;28;20057;-84
2022/05/25 11:01:29;;;;;;;3.35;0.77;;;;;;;27.23;26.38;100745.00;4997384;28;20041;-84
2022/05/25 11:05:25;;;;;;;2.45;0.55;;;;;;;23.96;31.31;100753.56;5005354;28;20074;-84
2022/05/25 11:08:53;;;;;;;3.25;1.88;;;;;;;22.48;34.38;100757.94;4932988;29;20081;-85
2022/05/25 11:12:16;;;;;;;1.17;0.55;;;;;;;21.58;36.29;100764.66;4982877;28;20030;-85
2022/05/25 11:19:05;;;;;;;4.45;1.02;;;;;;;20.88;37.76;100762.00;5009363;28;20030;-84
2022/05/25 11:30:20;;;;;;;2.00;1.10;;;;;;;23.45;34.10;100754.91;5013456;28;20038;-84
2022/05/25 11:40:18;;;;;;;0.90;0.85;;;;;;;22.98;34.07;100752.41;5023652;28;20358;-83
2022/05/25 11:47:23;;;;;;;1.55;0.52;;;;;;;22.63;32.62;100753.53;5010941;28;20042;-85
2022/05/25 11:50:34;;;;;;;;;;;;;;;21.42;35.21;100752.13;4989947;28;20073;-84
2022/05/25 11:53:38;;;;;;;0.60;0.60;;;;;;;21.87;35.45;100746.22;5011385;28;19961;-86
2022/05/25 11:56:34;;;;;;;1.00;0.90;;;;;;;24.15;31.49;100750.56;4978425;28;20042;-85
2022/05/25 11:59:36;;;;;;;2.50;0.75;;;;;;;25.93;30.02;100751.97;4983426;28;20042;-88
2022/05/25 12:02:52;;;;;;;1.75;0.80;;;;;;;27.81;27.40;100736.88;4988721;28;20056;-86
2022/05/25 12:06:06;;;;;;;1.05;0.65;;;;;;;27.81;27.08;100746.78;5002688;28;20039;-84
2022/05/25 12:09:10;;;;;;;2.40;0.82;;;;;;;27.69;27.08;100746.78;4967356;28;20093;-85
2022/05/25 12:12:34;;;;;;;1.85;0.50;;;;;;;27.19;26.75;100748.91;5000514;28;20048;-85
2022/05/25 12:16:25;;;;;;;0.85;0.57;;;;;;;27.14;26.76;100745.72;4976140;28;20062;-84
2022/05/25 12:19:08;;;;;;;0.40;0.40;;;;;;;27.46;26.06;100748.63;4902165;28;20055;-83
2022/05/25 12:21:41;;;;;;;0.50;0.40;;;;;;;28.39;25.41;100742.06;4992123;28;20162;-83
2022/05/25 12:24:28;;;;;;;2.15;0.95;;;;;;;28.10;26.17;100746.28;5002759;28;20038;-86
2022/05/25 12:26:58;;;;;;;0.70;0.68;;;;;;;28.85;25.20;100741.88;4974834;28;20050;-86
2022/05/25 12:29:34;;;;;;;1.83;0.50;;;;;;;28.99;24.87;100740.69;4987974;28;20117;-84
2022/05/25 12:32:04;;;;;;;3.13;0.73;;;;;;;29.88;24.00;100745.56;4989044;28;20053;-84
2022/05/25 12:35:03;;;;;;;1.38;0.57;;;;;;;29.33;24.45;100741.38;4954674;28;20058;-86
2022/05/25 12:37:47;;;;;;;0.55;0.55;;;;;;;28.88;24.65;100741.63;4968436;28;20544;-86
2022/05/25 12:40:53;;;;;;;0.50;0.50;;;;;;;29.86;23.67;100740.28;4987226;28;20368;-86
2022/05/25 12:43:39;;;;;;;2.50;0.80;;;;;;;30.39;22.76;100737.44;4966499;28;20055;-86
2022/05/25 12:49:07;;;;;;;3.50;0.45;;;;;;;28.60;24.74;100733.13;4984471;28;20034;-86
2022/05/25 12:51:48;;;;;;;0.63;0.50;;;;;;;27.94;25.00;100733.19;4999746;28;20042;-85
2022/05/25 12:54:24;;;;;;;0.70;0.32;;;;;;;28.18;24.88;100733.06;4969744;28;20347;-86
2022/05/25 12:57:06;;;;;;;1.95;0.30;;;;;;;28.64;24.47;100731.94;4983315;28;20085;-85
2022/05/25 12:59:42;;;;;;;1.80;0.30;;;;;;;28.56;23.72;100750.53;4970540;28;20050;-85
2022/05/25 13:02:40;;;;;;;0.25;0.25;;;;;;;27.81;24.40;100731.50;4982512;28;20038;-85
2022/05/25 13:05:46;;;;;;;0.85;0.30;;;;;;;26.87;25.86;100752.25;5004825;28;20057;-85
2022/05/25 13:09:08;;;;;;;0.93;0.30;;;;;;;25.88;26.42;100748.75;4963152;28;20050;-85
2022/05/25 13:11:39;;;;;;;0.65;0.50;;;;;;;25.64;27.05;100746.00;4990018;28;20049;-83
2022/05/25 13:14:16;;;;;;;0.52;0.30;;;;;;;26.31;26.66;100747.47;4990295;28;20053;-86
2022/05/25 13:16:49;;;;;;;2.55;0.10;;;;;;;26.83;25.83;100745.41;5018740;28;20046;-87
2022/05/25 13:19:24;;;;;;;;;;;;;;;27.26;24.99;100741.22;5018631;28;20114;-86
2022/05/25 13:22:02;;;;;;;1.02;0.20;;;;;;;26.94;24.19;100745.44;4999534;28;19926;-87
2022/05/25 13:25:06;;;;;;;0.38;0.10;;;;;;;27.04;24.55;100741.06;4988519;28;20046;-84
2022/05/25 13:32:12;;;;;;;0.60;0.43;;;;;;;23.71;29.21;100739.03;5011124;28;20050;-84
2022/05/25 13:34:42;;;;;;;0.47;0.32;;;;;;;23.23;30.49;100749.16;4981153;28;20038;-86
2022/05/25 13:37:14;;;;;;;1.00;0.35;;;;;;;23.63;29.76;100741.34;5013016;28;20042;-86
2022/05/25 13:39:51;;;;;;;0.47;0.38;;;;;;;23.63;30.26;100736.00;4995438;28;20085;-83